createdAt,value
2018-03-16T00:02:09.859Z,64.13
2018-03-16T00:06:53.187Z,59.43
2018-03-16T00:11:36.572Z,60.07
2018-03-16T00:16:20.685Z,60.10
2018-03-16T00:21:04.065Z,56.57
2018-03-16T00:25:47.397Z,63.33
2018-03-16T00:30:30.767Z,60.77
2018-03-16T00:35:14.151Z,62.47
2018-03-16T00:39:57.604Z,65.07
2018-03-16T00:44:40.926Z,60.73
2018-03-16T00:49:24.308Z,58.27
2018-03-16T00:54:07.642Z,64.10
2018-03-16T00:58:50.986Z,62.53
2018-03-16T01:03:34.330Z,62.80
2018-03-16T01:08:17.636Z,61.70
2018-03-16T01:13:00.960Z,67.57
2018-03-16T01:17:44.354Z,67.67
2018-03-16T01:22:28.759Z,68.20
2018-03-16T01:27:12.072Z,65.13
2018-03-16T01:31:55.463Z,67.10
2018-03-16T01:36:38.801Z,66.80
2018-03-16T01:41:22.120Z,68.80
2018-03-16T01:46:05.704Z,64.70
2018-03-16T01:50:48.993Z,65.70
2018-03-16T01:55:32.488Z,66.00
2018-03-16T02:00:15.874Z,64.03
2018-03-16T02:04:59.277Z,62.27
2018-03-16T02:09:42.613Z,66.73
2018-03-16T02:14:25.954Z,66.30
2018-03-16T02:19:09.282Z,65.77
2018-03-16T02:23:52.706Z,66.17
2018-03-16T02:28:36.049Z,64.90
2018-03-16T02:33:20.129Z,64.13
2018-03-16T02:38:03.456Z,63.03
2018-03-16T02:42:46.862Z,63.27
2018-03-16T02:47:30.261Z,60.80
2018-03-16T02:52:13.544Z,66.33
2018-03-16T02:56:56.905Z,65.53
2018-03-16T03:01:40.246Z,65.47
2018-03-16T03:06:23.634Z,70.53
2018-03-16T03:11:07.278Z,63.63
2018-03-16T03:15:50.574Z,63.53
2018-03-16T03:20:33.951Z,65.80
2018-03-16T03:25:17.351Z,64.03
2018-03-16T03:30:00.672Z,72.17
2018-03-16T03:34:43.999Z,68.80
2018-03-16T03:39:28.130Z,69.93
2018-03-16T03:44:11.444Z,68.10
2018-03-16T03:48:54.806Z,70.70
2018-03-16T03:53:38.141Z,71.63
2018-03-16T03:58:21.479Z,79.17
2018-03-16T04:03:05.762Z,75.10
2018-03-16T04:07:49.130Z,75.17
2018-03-16T04:12:33.221Z,82.00
2018-03-16T04:17:16.535Z,69.77
2018-03-16T04:21:59.858Z,73.60
2018-03-16T04:26:43.986Z,78.70
2018-03-16T04:31:27.311Z,85.53
2018-03-16T04:36:10.651Z,82.37
2018-03-16T04:40:58.246Z,70.20
2018-03-16T04:45:47.584Z,77.03
2018-03-16T04:50:31.091Z,77.47
2018-03-16T04:55:16.414Z,77.03
2018-03-16T05:00:04.678Z,85.43
2018-03-16T05:04:48.071Z,79.83
2018-03-16T05:09:31.411Z,84.17
2018-03-16T05:14:14.785Z,81.90
2018-03-16T05:18:58.108Z,82.63
2018-03-16T05:23:41.511Z,82.63
2018-03-16T05:28:24.888Z,76.27
2018-03-16T05:33:08.286Z,78.87
2018-03-16T05:37:51.640Z,81.83
2018-03-16T05:42:35.038Z,84.60
2018-03-16T05:47:18.381Z,82.30
2018-03-16T05:52:01.797Z,88.37
2018-03-16T05:56:45.288Z,81.13
2018-03-16T06:01:28.684Z,85.90
2018-03-16T06:06:12.024Z,84.00
2018-03-16T06:10:55.341Z,80.93
2018-03-16T06:15:38.797Z,102.75
2018-03-16T06:20:22.189Z,77.97
2018-03-16T06:25:06.156Z,80.97
2018-03-16T06:29:50.258Z,84.33
2018-03-16T06:34:33.609Z,82.60
2018-03-16T06:39:16.977Z,77.27
2018-03-16T06:44:00.327Z,90.60
2018-03-16T06:48:43.675Z,87.67
2018-03-16T06:53:27.798Z,82.33
2018-03-16T06:58:11.111Z,75.47
2018-03-16T07:02:54.496Z,70.87
2018-03-16T07:07:38.135Z,75.47
2018-03-16T07:12:21.502Z,81.70
2018-03-16T07:17:04.810Z,80.00
2018-03-16T07:21:48.169Z,97.20
2018-03-16T07:26:31.897Z,71.93
2018-03-16T07:31:15.197Z,73.63
2018-03-16T07:35:58.620Z,68.97
2018-03-16T07:40:42.734Z,69.17
2018-03-16T07:45:31.761Z,69.83
2018-03-16T07:50:15.969Z,67.17
2018-03-16T07:54:59.596Z,63.13
2018-03-16T07:59:43.763Z,64.30
2018-03-16T08:04:27.093Z,61.27
2018-03-16T08:09:10.460Z,60.40
2018-03-16T08:17:54.212Z,57.07
2018-03-16T08:22:37.591Z,55.33
2018-03-16T08:27:20.987Z,56.13
2018-03-16T08:32:04.458Z,57.13
2018-03-16T08:36:47.764Z,50.63
2018-03-16T08:41:31.081Z,48.33
2018-03-16T08:46:15.228Z,47.13
2018-03-16T08:50:58.590Z,46.07
2018-03-16T08:55:42.753Z,47.77
2018-03-16T09:00:26.277Z,39.53
2018-03-16T09:05:10.160Z,44.40
2018-03-16T09:09:53.531Z,41.17
2018-03-16T09:14:37.157Z,44.17
2018-03-16T09:19:20.488Z,43.50
2018-03-16T09:24:04.100Z,44.63
2018-03-16T09:28:47.653Z,46.17
2018-03-16T09:33:31.036Z,43.27
2018-03-16T09:38:15.142Z,38.40
2018-03-16T09:42:59.023Z,34.70
2018-03-16T09:47:43.459Z,40.17
2018-03-16T09:52:26.840Z,39.30
2018-03-16T09:57:10.539Z,35.53
2018-03-16T10:01:54.676Z,37.57
2018-03-16T10:06:38.242Z,36.73
2018-03-16T10:11:21.924Z,32.73
2018-03-16T10:16:05.777Z,34.67
2018-03-16T10:20:49.343Z,39.17
2018-03-16T10:25:32.770Z,37.53
2018-03-16T10:30:17.835Z,32.57
2018-03-16T10:39:48.947Z,32.83
2018-03-16T10:44:32.893Z,41.57
2018-03-16T10:49:16.951Z,37.03
2018-03-16T10:54:03.048Z,36.53
2018-03-16T10:58:49.047Z,39.53
2018-03-16T11:03:53.794Z,41.07
2018-03-16T11:08:38.983Z,39.87
2018-03-16T11:13:24.283Z,50.47
2018-03-16T11:18:08.987Z,51.90
2018-03-16T11:22:54.187Z,38.77
2018-03-16T11:27:38.124Z,176.60
2018-03-16T11:32:22.629Z,142.30
2018-03-16T11:37:09.119Z,41.47
2018-03-16T11:41:54.110Z,41.20
2018-03-16T11:46:38.022Z,41.70
2018-03-16T11:51:23.171Z,41.80
2018-03-16T11:56:07.269Z,37.60
2018-03-16T12:00:50.991Z,39.17
2018-03-16T12:05:34.639Z,38.47
2018-03-16T12:10:18.571Z,41.53
2018-03-16T12:15:02.896Z,40.43
2018-03-16T12:19:46.266Z,37.33
2018-03-16T12:24:30.858Z,38.03
2018-03-16T12:29:14.965Z,36.67
2018-03-16T12:33:59.272Z,37.17
2018-03-16T12:38:42.880Z,37.97
2018-03-16T12:43:26.974Z,35.30
2018-03-16T12:48:10.484Z,33.70
2018-03-16T12:52:53.990Z,32.83
2018-03-16T12:57:39.065Z,27.37
2018-03-16T13:02:23.881Z,31.00
2018-03-16T13:07:07.766Z,29.30
2018-03-16T13:11:51.972Z,31.47
2018-03-16T13:16:36.696Z,31.27
2018-03-16T13:21:20.240Z,29.57
2018-03-16T13:26:05.287Z,24.40
2018-03-16T13:30:48.737Z,26.97
2018-03-16T13:35:32.250Z,24.87
2018-03-16T13:40:15.776Z,27.13
2018-03-16T13:45:00.086Z,24.60
2018-03-16T13:49:43.628Z,24.60
2018-03-16T13:54:27.310Z,22.63
2018-03-16T13:59:11.491Z,26.50
2018-03-16T14:03:54.982Z,25.27
2018-03-16T14:08:39.121Z,26.00
2018-03-16T14:13:22.426Z,25.77
2018-03-16T14:18:05.809Z,25.23
2018-03-16T14:22:49.321Z,26.17
2018-03-16T14:27:32.802Z,25.07
2018-03-16T14:42:19.739Z,27.50
2018-03-16T14:47:03.415Z,26.93
2018-03-16T14:51:47.502Z,31.17
2018-03-16T14:56:30.836Z,30.90
2018-03-16T15:01:14.442Z,30.63
2018-03-16T15:05:57.750Z,31.87
2018-03-16T15:10:41.326Z,32.13
2018-03-16T15:15:24.874Z,28.73
2018-03-16T15:20:08.469Z,29.50
2018-03-16T15:24:51.828Z,31.93
2018-03-16T15:29:35.946Z,29.87
2018-03-16T15:34:32.581Z,31.83
2018-03-16T15:39:15.910Z,29.30
2018-03-16T15:44:00.142Z,28.97
2018-03-16T15:48:43.484Z,26.53
2018-03-16T15:53:26.809Z,26.37
2018-03-16T15:58:10.151Z,29.17
2018-03-16T16:02:53.572Z,29.07
2018-03-16T16:07:39.009Z,28.00
2018-03-16T16:12:23.221Z,25.87
2018-03-16T16:17:06.715Z,26.40
2018-03-16T16:21:50.208Z,26.50
2018-03-16T16:26:34.602Z,27.37
2018-03-16T16:31:19.032Z,29.30
2018-03-16T16:36:02.427Z,27.23
2018-03-16T16:40:46.512Z,26.13
2018-03-16T16:45:30.763Z,25.87
2018-03-16T16:50:14.114Z,28.33
2018-03-16T16:54:57.547Z,28.53
2018-03-16T16:59:41.030Z,27.13
2018-03-16T17:04:27.496Z,28.93
2018-03-16T17:09:10.902Z,27.33
2018-03-16T17:13:55.126Z,25.63
2018-03-16T17:18:38.857Z,26.87
2018-03-16T17:23:23.298Z,27.60
2018-03-16T17:28:07.464Z,27.43
2018-03-16T17:32:51.408Z,27.93
2018-03-16T17:37:35.889Z,24.80
2018-03-16T17:42:19.403Z,26.70
2018-03-16T17:47:04.347Z,25.43
2018-03-16T17:51:48.969Z,23.67
2018-03-16T17:56:32.564Z,22.33
2018-03-16T18:01:16.077Z,24.33
2018-03-16T18:06:00.326Z,27.23
2018-03-16T18:10:45.584Z,29.37
2018-03-16T18:15:31.921Z,28.43
2018-03-16T18:20:15.871Z,22.97
2018-03-16T18:25:01.043Z,25.27
2018-03-16T18:29:45.617Z,22.90
2018-03-16T18:34:29.023Z,28.07
2018-03-16T18:39:12.405Z,26.67
2018-03-16T18:43:56.781Z,29.70
2018-03-16T18:48:40.919Z,26.37
2018-03-16T18:53:25.166Z,27.70
2018-03-16T18:58:08.533Z,27.13
2018-03-16T19:02:51.913Z,29.17
2018-03-16T19:07:35.306Z,27.73
2018-03-16T19:12:18.709Z,27.13
2018-03-16T19:17:02.104Z,27.40
2018-03-16T19:21:45.604Z,23.70
2018-03-16T19:26:29.083Z,24.93
2018-03-16T19:31:12.637Z,27.60
2018-03-16T19:35:56.853Z,27.00
2018-03-16T19:40:41.051Z,26.27
2018-03-16T19:45:24.729Z,28.50
2018-03-16T19:50:08.519Z,22.73
2018-03-16T19:54:52.321Z,24.90
2018-03-16T19:59:35.775Z,24.67
2018-03-16T20:04:20.366Z,25.33
2018-03-16T20:09:04.678Z,23.50
2018-03-16T20:13:48.429Z,23.50
2018-03-16T20:18:32.106Z,24.33
2018-03-16T20:23:15.503Z,23.57
2018-03-16T20:27:58.877Z,25.37
2018-03-16T20:32:42.396Z,23.90
2018-03-16T20:37:25.969Z,22.73
2018-03-16T20:42:10.530Z,20.60
2018-03-16T20:46:54.270Z,25.10
2018-03-16T20:51:38.505Z,24.83
2018-03-16T20:56:22.077Z,24.43
2018-03-16T21:01:05.708Z,22.90
2018-03-16T21:05:49.607Z,20.33
2018-03-16T21:10:33.374Z,20.40
2018-03-16T21:15:16.826Z,20.63
2018-03-16T21:20:00.408Z,20.00
2018-03-16T21:24:44.581Z,19.57
2018-03-16T21:29:28.169Z,20.27
2018-03-16T21:34:11.539Z,21.30
2018-03-16T21:38:55.031Z,21.90
2018-03-16T21:43:38.656Z,21.03
2018-03-16T21:48:22.223Z,21.10
2018-03-16T21:53:06.704Z,19.57
2018-03-16T21:57:51.528Z,18.57
2018-03-16T22:02:35.069Z,20.67
2018-03-16T22:07:18.718Z,18.63
2018-03-16T22:12:02.353Z,19.73
2018-03-16T22:16:45.774Z,19.17
2018-03-16T22:21:29.256Z,16.87
2018-03-16T22:26:13.101Z,20.60
2018-03-16T22:30:58.561Z,18.27
2018-03-16T22:35:42.140Z,17.97
2018-03-16T22:40:26.866Z,16.47
2018-03-16T22:45:10.539Z,18.63
2018-03-16T22:49:54.360Z,17.60
2018-03-16T22:54:39.524Z,16.97
2018-03-16T22:59:23.183Z,16.20
2018-03-16T23:04:06.894Z,18.13
2018-03-16T23:08:50.718Z,15.73
2018-03-16T23:13:34.178Z,18.17
2018-03-16T23:18:17.606Z,15.23
2018-03-16T23:23:01.293Z,15.33
2018-03-16T23:27:45.523Z,16.33
2018-03-16T23:32:28.992Z,16.80
2018-03-16T23:37:12.515Z,16.47
2018-03-16T23:41:56.984Z,12.80
2018-03-16T23:46:40.533Z,15.20
2018-03-16T23:51:24.788Z,13.80
2018-03-16T23:56:08.345Z,12.47
